Flight Track Log - Related Links

Times and Time Zones

All times are in EDT time to prevent confusion due to time zone crossing. See the UPS37 flight status page for this flight to view local times or setup timezone preferences in your user account.

Time Position Orientation Groundspeed Altitude Reporting Facility
EDT Latitude Longitude Course Direction KTS MPH feet Rate Location/Type
Sun 04:57:16 AM -33.9590 151.1792 353° North 94 108  Level FlightAware ADS-B (YRAY)
Sun 04:57:36 AM -33.9466 151.1761 348° North 170 196 1,077 Level FlightAware ADS-B (YRAY)
Sun 04:57:55 AM -33.9327 151.1700 340° North 194 223 700 2,769 Climbing FlightAware ADS-B
Sun 04:58:15 AM -33.9131 151.1685 356° North 178 205 1,800 2,634 Climbing FlightAware ADS-B
Sun 04:58:36 AM -33.8959 151.1636 347° North 180 207 2,500 2,200 Climbing FlightAware ADS-B (YRAY)
Sun 04:58:45 AM -33.8886 151.1588 331° Northwest 176 203 2,900 2,526 Climbing FlightAware ADS-B (YRAY)
Sun 04:58:55 AM -33.8819 151.1528 324° Northwest 176 203 3,300 2,286 Climbing FlightAware ADS-B (YRAY)
Sun 04:59:06 AM -33.8752 151.1458 319° Northwest 184 212 3,700 1,241 Climbing FlightAware ADS-B (YRAY)
Sun 04:59:24 AM -33.8636 151.1321 316° Northwest 224 258 3,900 1,077 Climbing FlightAware ADS-B
Sun 04:59:45 AM -33.8479 151.1116 313° West 255 293 4,400 2,556 Climbing FlightAware ADS-B
Sun 05:00:18 AM -33.8196 151.0754 313° West 263 303 6,200 3,231 Climbing FlightAware ADS-B
Sun 05:00:37 AM -33.8039 151.0550 313° West 269 310 7,200 3,000 Climbing FlightAware ADS-B
Sun 05:00:58 AM -33.7871 151.0317 311° West 273 314 8,200 3,220 Climbing FlightAware ADS-B
Sun 05:01:18 AM -33.7720 151.0088 308° West 274 315 9,400 3,176 Climbing FlightAware ADS-B
Sun 05:01:49 AM -33.7470 150.9720 309° West 275 316 10,900 2,919 Climbing FlightAware ADS-B
Sun 05:01:55 AM -33.7410 150.9637 311° West 290 334 11,200 1,882 Climbing FlightAware ADS-B
Sun 05:02:40 AM -33.6997 150.9061 311° West 327 376 12,500 1,595 Climbing FlightAware ADS-B
Sun 05:03:14 AM -33.6630 150.8583 311° West 331 381 13,300 1,692 Climbing Aus ATC (RADAR)
Sun 05:03:19 AM -33.6574 150.8515 311° West 359 413 13,600 1,674 Climbing FlightAware ADS-B
Sun 05:03:57 AM -33.6095 150.7947 315° West 393 452 14,500 1,552 Climbing FlightAware ADS-B
Sun 05:04:17 AM -33.5802 150.7737 329° Northwest 407 468 15,100 1,950 Climbing FlightAware ADS-B
Sun 05:04:37 AM -33.5427 150.7596 342° North 420 483 15,800 1,560 Climbing FlightAware ADS-B
Sun 05:05:07 AM -33.4835 150.7416 342° North 413 475 16,400 1,902 Climbing Aus ATC (RADAR)
Sun 05:05:18 AM -33.4617 150.7350 342° North 439 505 17,100 2,488 Climbing FlightAware ADS-B
Sun 05:05:48 AM -33.4043 150.7176 346° North 449 517 18,100 1,967 Climbing FlightAware ADS-B
Sun 05:06:19 AM -33.3405 150.6987 346° North 448 516 19,100 2,082 Climbing Aus ATC (RADAR)
Sun 05:06:37 AM -33.3086 150.6895 346° North 460 529 19,800 2,105 Climbing FlightAware ADS-B
Sun 05:07:16 AM -33.2260 150.6650 346° North 465 535 21,100 1,895 Climbing FlightAware ADS-B
Sun 05:07:53 AM -33.1570 150.6450 346° North 460 529 22,200 2,045 Climbing FlightAware ADS-B
Sun 05:08:00 AM -33.1347 150.6383 346° North 473 544 22,600 1,737 Climbing FlightAware ADS-B
Sun 05:08:31 AM -33.0650 150.6180 346° North 482 555 23,300 1,377 Climbing FlightAware ADS-B
Sun 05:09:01 AM -32.9970 150.5980 346° North 483 556 24,000 1,545 Climbing FlightAware ADS-B
Sun 05:09:37 AM -32.9180 150.5740 346° North 496 571 25,000 1,463 Climbing FlightAware ADS-B
Sun 05:09:42 AM -32.9049 150.5704 346° North 482 555 25,000 1,714 Level Aus ATC (RADAR)
Sun 05:10:12 AM -32.8490 150.5540 346° North 497 572 26,000 1,935 Climbing FlightAware ADS-B
Sun 05:10:13 AM -32.8352 150.5497 346° North 497 572 26,000 2,571 Level Aus ATC (RADAR)
Sun 05:10:47 AM -32.7650 150.5290 346° North 481 554 27,500 1,941 Climbing FlightAware ADS-B
Sun 05:11:21 AM -32.7100 150.5130 346° North 490 564 28,200 1,478 Climbing FlightAware ADS-B
Sun 05:11:56 AM -32.6080 150.4830 346° North 498 573 29,200 2,057 Climbing FlightAware ADS-B
Sun 05:12:31 AM -32.5310 150.4610 346° North 487 560 30,600 2,108 Climbing FlightAware ADS-B
Sun 05:12:33 AM -32.5256 150.4591 346° North 489 563 30,500 1,143 Descending Aus ATC (RADAR)
Sun 05:13:13 AM -32.4420 150.4350 346° North 493 567 31,400 1,291 Climbing FlightAware ADS-B
Sun 05:13:52 AM -32.3550 150.4100 346° North 492 566 32,200 1,217 Climbing FlightAware ADS-B
Sun 05:14:22 AM -32.2880 150.3900 346° North 495 570 32,800 1,029 Climbing FlightAware ADS-B
Sun 05:15:02 AM -32.2040 150.3660 346° North 498 573 33,400 900 Climbing FlightAware ADS-B
Sun 05:15:42 AM -32.1110 150.3390 346° North 499 574 34,000 480 Climbing FlightAware ADS-B
Sun 05:16:17 AM -32.0280 150.3150 346° North 493 567 34,000  Level FlightAware ADS-B
Sun 05:16:49 AM -31.9620 150.2960 346° North 484 557 34,000  Level FlightAware ADS-B
Sun 05:17:27 AM -31.8750 150.2700 346° North 495 570 34,000  Level FlightAware ADS-B
Sun 05:18:01 AM -31.7980 150.2480 346° North 495 570 34,000  Level FlightAware ADS-B
Sun 05:18:37 AM -31.7190 150.2260 347° North 494 568 34,000  Level FlightAware ADS-B
Sun 05:19:17 AM -31.6310 150.2010 346° North 493 567 34,000  Level FlightAware ADS-B
Sun 05:19:52 AM -31.5520 150.1780 346° North 494 568 34,000  Level FlightAware ADS-B
Sun 05:20:28 AM -31.4760 150.1560 346° North 494 568 34,000  Level FlightAware ADS-B
Sun 05:21:03 AM -31.3950 150.1330 346° North 496 571 34,000  Level FlightAware ADS-B
Sun 05:21:37 AM -31.3190 150.1120 347° North 497 572 34,000  Level FlightAware ADS-B
Sun 05:22:13 AM -31.2380 150.0880 346° North 498 573 34,000  Level FlightAware ADS-B
Sun 05:22:47 AM -31.1700 150.0690 347° North 500 575 34,000  Level FlightAware ADS-B
Sun 05:23:23 AM -31.0830 150.0450 347° North 493 567 34,000  Level FlightAware ADS-B
Sun 05:23:58 AM -31.0000 150.0210 346° North 493 567 34,000  Level FlightAware ADS-B
Sun 05:24:31 AM -30.9245 149.9999 346° North 495 570 34,000  Level Aus ATC (RADAR)
Sun 05:24:35 AM -30.9300 150.0010 346° North 493 567 34,000  Level FlightAware ADS-B
Sun 05:25:08 AM -30.8440 149.9770 347° North 651 749 34,000  Level FlightAware ADS-B
Sun 05:25:55 AM -30.7530 149.9510 346° North 496 571 34,000  Level FlightAware ADS-B
Sun 05:26:31 AM -30.6850 149.9310 346° North 496 571 34,000  Level FlightAware ADS-B
Sun 05:27:07 AM -30.6170 149.9120 346° North 496 571 34,000 -87 Level FlightAware ADS-B
Sun 05:27:40 AM -30.4934 149.8789 346° North 499 574 33,900  Descending Aus ATC (RADAR)
Sun 05:27:44 AM -30.5470 149.8910 346° North 496 571 34,000 150 Climbing FlightAware ADS-B
Sun 05:28:20 AM -30.4790 149.8720 346° North 496 571 34,000  Level FlightAware ADS-B
Sun 05:28:56 AM -30.4110 149.8520 346° North 496 571 34,000  Level FlightAware ADS-B
Sun 05:29:32 AM -30.3420 149.8320 346° North 496 571 34,000  Level FlightAware ADS-B
Sun 05:30:08 AM -30.2740 149.8130 346° North 496 571 34,000 -88 Level FlightAware ADS-B
Sun 05:30:40 AM -30.0780 149.7785 346° North 508 585 33,900  Descending Aus ATC (RADAR)
Sun 05:30:45 AM -30.2040 149.7920 346° North 496 571 34,000 146 Climbing FlightAware ADS-B
Sun 05:31:21 AM -30.1360 149.7730 346° North 496 571 34,000  Level FlightAware ADS-B
Sun 05:31:57 AM -30.0680 149.7530 346° North 496 571 34,000  Level FlightAware ADS-B
Sun 05:32:33 AM -30.0000 149.7340 346° North 496 571 34,000  Level FlightAware ADS-B
Sun 05:33:09 AM -29.9320 149.7140 346° North 496 571 34,000  Level FlightAware ADS-B
Sun 05:33:46 AM -29.8620 149.6940 346° North 496 571 34,000  Level FlightAware ADS-B
Sun 05:34:20 AM -29.7970 149.6750 346° North 496 571 34,000  Level FlightAware ADS-B
Sun 05:34:56 AM -29.7290 149.6560 346° North 496 571 34,000 -78 Level FlightAware ADS-B
Sun 05:35:37 AM -29.3810 149.6294 346° North 517 595 33,900  Descending Aus ATC (RADAR)
Sun 05:36:35 AM -29.2416 149.6002 350° North 517 595 34,000  Climbing Aus ATC (RADAR)
Sun 05:37:12 AM -29.1555 149.5826 350° North 521 600 33,900 -65 Descending Aus ATC (RADAR)
Sun 05:38:07 AM -29.0263 149.5546 349° North 518 596 33,900  Level Aus ATC (RADAR)
Sun 05:38:21 AM -28.9902 149.5474 350° North 520 598 33,900  Level Aus ATC (RADAR)
Sun 05:38:56 AM -28.9071 149.5304 350° North 521 600 33,900  Level Aus ATC (RADAR)
Sun 05:39:59 AM -28.7563 149.4983 349° North 516 594 33,900  Level Aus ATC (RADAR)
Sun 05:40:11 AM -28.7303 149.4926 349° North 518 596 33,900  Level Aus ATC (RADAR)
Sun 05:40:46 AM -28.6483 149.4746 349° North 517 595 33,900  Level Aus ATC (RADAR)
Sun 05:41:46 AM -28.5051 149.4459 350° North 521 600 33,900  Level Aus ATC (RADAR)
Sun 05:42:24 AM -28.4131 149.4269 350° North 517 595 33,900  Level Aus ATC (RADAR)
Sun 05:43:21 AM -28.2799 149.3986 349° North 520 598 33,900  Level Aus ATC (RADAR)
Sun 05:43:56 AM -28.1967 149.3808 349° North 522 601 33,900  Level Aus ATC (RADAR)
Sun 05:45:06 AM -28.0376 149.3248 343° North 523 602 33,900  Level Aus ATC (RADAR)
Sun 05:45:21 AM -28.0047 149.3115 340° North 519 597 33,900  Level Aus ATC (RADAR)
Sun 05:45:56 AM -27.9277 149.2808 341° North 513 590 33,900  Level Aus ATC (RADAR)
Sun 05:46:51 AM -27.8053 149.2334 341° North 511 588 33,900  Level Aus ATC (RADAR)
Sun 05:47:26 AM -27.7259 149.2046 342° North 513 590 33,900  Level Aus ATC (RADAR)
Sun 05:48:26 AM -27.5895 149.1549 342° North 515 593 33,900  Level Aus ATC (RADAR)
Sun 05:48:41 AM -27.5559 149.1419 341° North 516 594 33,900  Level Aus ATC (RADAR)
Sun 05:49:14 AM -27.4774 149.1166 344° North 517 595 33,900  Level Aus ATC (RADAR)
Sun 05:50:19 AM -27.3287 149.0628 342° North 518 596 33,900 75 Level Aus ATC (RADAR)
Sun 05:50:34 AM -27.2944 149.0506 342° North 516 594 34,000 109 Climbing Aus ATC (RADAR)
Sun 05:51:14 AM -27.2028 149.0172 342° North 518 596 34,000 -67 Level Aus ATC (RADAR)
Sun 05:52:04 AM -27.0891 148.9762 342° North 514 592 33,900 -71 Descending Aus ATC (RADAR)
Sun 05:52:38 AM -27.0100 148.9476 342° North 512 589 33,900  Level Aus ATC (RADAR)
Sun 05:53:43 AM -26.8624 148.8948 342° North 513 590 33,900 57 Level Aus ATC (RADAR)
Sun 05:54:23 AM -26.7724 148.8625 342° North 509 586 34,000 57 Climbing Aus ATC (RADAR)
Sun 05:55:28 AM -26.6256 148.8101 342° North 511 588 34,000  Level Aus ATC (RADAR)
Sun 05:55:43 AM -26.5912 148.7980 342° North 513 590 34,000  Level Aus ATC (RADAR)
Sun 05:56:18 AM -26.5122 148.7704 343° North 510 587 34,000 63 Level Aus ATC (RADAR)
Sun 05:57:18 AM -26.3712 148.7305 346° North 520 598 34,100  Climbing Aus ATC (RADAR)
Sun 05:57:48 AM -26.3009 148.7107 346° North 521 600 34,000 -71 Descending Aus ATC (RADAR)
Sun 05:58:43 AM -26.1727 148.6727 345° North 517 595 34,000  Level Aus ATC (RADAR)
Sun 05:59:19 AM -26.0917 148.6489 345° North 516 594 34,000  Level Aus ATC (RADAR)
Sun 06:00:33 AM -25.9181 148.5984 345° North 515 593 34,000  Level Aus ATC (RADAR)
Sun 06:00:53 AM -25.8713 148.5849 345° North 519 597 34,000  Level Aus ATC (RADAR)
Sun 06:01:28 AM -25.7904 148.5613 345° North 516 594 34,000  Level Aus ATC (RADAR)
Sun 06:02:18 AM -25.6745 148.5279 345° North 517 595 34,000  Level Aus ATC (RADAR)
Sun 06:02:56 AM -25.5990 148.5060 345° North 520 598 34,000  Level FlightAware ADS-B
Sun 06:02:58 AM -25.5818 148.5011 345° North 516 594 34,000 158 Level Aus ATC (RADAR)
Sun 06:03:34 AM -25.5060 148.4790 345° North 521 600 34,100 87 Climbing FlightAware ADS-B
Sun 06:04:07 AM -25.4360 148.4590 346° North 521 600 34,100  Level FlightAware ADS-B
Sun 06:04:41 AM -25.3530 148.4350 345° North 520 598 34,100  Level FlightAware ADS-B
Sun 06:05:14 AM -25.2800 148.4140 345° North 519 597 34,100 -81 Level FlightAware ADS-B
Sun 06:05:55 AM -25.1850 148.3870 346° North 517 595 34,000 -82 Descending FlightAware ADS-B
Sun 06:06:27 AM -25.1040 148.3630 345° North 514 592 34,000  Level FlightAware ADS-B
Sun 06:07:07 AM -25.0100 148.3360 345° North 514 592 34,000  Level FlightAware ADS-B
Sun 06:07:37 AM -24.9325 148.3141 345° North 513 590 34,000  Level Aus ATC (RADAR)
Sun 06:07:40 AM -24.9430 148.3170 345° North 514 592 34,000  Level FlightAware ADS-B
Sun 06:08:22 AM -24.8500 148.2910 346° North 515 593 34,000  Level FlightAware ADS-B
Sun 06:08:51 AM -24.7730 148.2690 345° North 515 593 34,000  Level FlightAware ADS-B
Sun 06:09:31 AM -24.6750 148.2410 345° North 516 594 34,000 73 Level FlightAware ADS-B
Sun 06:10:13 AM -24.5890 148.2160 345° North 516 594 34,100 82 Climbing FlightAware ADS-B
Sun 06:10:44 AM -24.5160 148.1950 345° North 515 593 34,100 -176 Level FlightAware ADS-B
Sun 06:10:47 AM -24.4932 148.1895 345° North 516 594 34,000 -136 Descending Aus ATC (RADAR)
Sun 06:11:28 AM -24.4200 148.1680 346° North 516 594 34,000  Level FlightAware ADS-B
Sun 06:11:57 AM -24.3370 148.1450 346° North 517 595 34,000  Level FlightAware ADS-B
Sun 06:12:33 AM -24.2503 148.1208 346° North 515 593 34,000  Level Aus ATC (RADAR)
Sun 06:12:44 AM -24.2430 148.1180 346° North 516 594 34,000  Level FlightAware ADS-B
Sun 06:13:16 AM -24.1540 148.0930 346° North 516 594 34,000  Level FlightAware ADS-B
Sun 06:13:57 AM -24.0570 148.0660 346° North 516 594 34,000  Level FlightAware ADS-B
Sun 06:14:29 AM -23.9900 148.0470 345° North 516 594 34,000  Level FlightAware ADS-B
Sun 06:15:02 AM -23.9130 148.0250 345° North 516 594 34,000  Level FlightAware ADS-B
Sun 06:15:43 AM -23.8190 147.9990 346° North 515 593 34,000  Level FlightAware ADS-B
Sun 06:16:15 AM -23.7420 147.9770 345° North 515 593 34,000  Level FlightAware ADS-B
Sun 06:16:46 AM -23.6604 147.9546 345° North 515 593 34,000  Level Aus ATC (RADAR)
Sun 06:16:47 AM -23.6680 147.9560 345° North 515 593 34,000  Level FlightAware ADS-B
Sun 06:17:20 AM -23.6010 147.9380 346° North 516 594 34,000  Level FlightAware ADS-B
Sun 06:17:58 AM -23.5010 147.9100 346° North 517 595 34,000  Level FlightAware ADS-B
Sun 06:18:40 AM -23.4070 147.8830 345° North 519 597 34,000  Level FlightAware ADS-B
Sun 06:19:11 AM -23.3236 147.8607 345° North 521 600 34,000  Level Aus ATC (RADAR)
Sun 06:19:19 AM -23.3360 147.8630 345° North 521 600 34,000 146 Level FlightAware ADS-B
Sun 06:19:52 AM -23.2450 147.8380 346° North 522 601 34,100 81 Climbing FlightAware ADS-B
Sun 06:20:33 AM -23.1480 147.8110 346° North 522 601 34,100 -81 Level FlightAware ADS-B
Sun 06:21:06 AM -23.0544 147.7859 346° North 522 601 34,000  Descending Aus ATC (RADAR)
Sun 06:21:17 AM -23.0470 147.7830 346° North 518 596 34,100  Climbing FlightAware ADS-B
Sun 06:21:50 AM -22.9710 147.7620 346° North 516 594 34,000 -82 Descending FlightAware ADS-B
Sun 06:22:30 AM -22.8780 147.7360 346° North 514 592 34,000  Level FlightAware ADS-B
Sun 06:23:11 AM -22.7850 147.7090 345° North 510 587 34,000  Level FlightAware ADS-B
Sun 06:23:51 AM -22.6910 147.6810 345° North 507 583 34,000  Level FlightAware ADS-B
Sun 06:24:24 AM -22.6210 147.6600 345° North 505 581 34,000  Level FlightAware ADS-B
Sun 06:24:56 AM -22.5460 147.6370 344° North 505 581 34,000  Level FlightAware ADS-B
Sun 06:25:31 AM -22.4501 147.6103 344° North 506 582 34,000  Level Aus ATC (RADAR)
Sun 06:25:37 AM -22.4550 147.6100 344° North 507 583 34,000  Level FlightAware ADS-B
Sun 06:26:09 AM -22.3820 147.5890 345° North 508 585 34,000  Level FlightAware ADS-B
Sun 06:26:42 AM -22.3080 147.5670 345° North 509 586 34,000 82 Level FlightAware ADS-B
Sun 06:27:22 AM -22.2150 147.5400 345° North 510 587 34,100 82 Climbing FlightAware ADS-B
Sun 06:27:55 AM -22.1410 147.5180 345° North 511 588 34,100  Level FlightAware ADS-B
Sun 06:28:25 AM -22.0519 147.4924 345° North 512 589 34,100  Level Aus ATC (RADAR)
Sun 06:28:29 AM -22.0590 147.4940 345° North 511 588 34,100  Level FlightAware ADS-B
Sun 06:29:02 AM -21.9860 147.4720 344° North 512 589 34,100 -91 Level FlightAware ADS-B
Sun 06:29:35 AM -21.8915 147.4452 344° North 510 587 34,000 -167 Descending Aus ATC (RADAR)
Sun 06:29:38 AM -21.9010 147.4470 344° North 515 593 34,000  Level FlightAware ADS-B
Sun 06:30:10 AM -21.8270 147.4250 345° North 517 595 34,000  Level FlightAware ADS-B
Sun 06:30:51 AM -21.7340 147.3980 345° North 518 596 34,000 82 Level FlightAware ADS-B
Sun 06:31:23 AM -21.6570 147.3760 345° North 517 595 34,100 81 Climbing FlightAware ADS-B
Sun 06:32:05 AM -21.5580 147.3470 345° North 515 593 34,100 -73 Level FlightAware ADS-B
Sun 06:32:45 AM -21.4534 147.3170 345° North 509 586 34,000 -125 Descending Aus ATC (RADAR)
Sun 06:32:53 AM -21.4560 147.3170 345° North 512 589 34,000  Level FlightAware ADS-B
Sun 06:33:26 AM -21.3980 147.2990 344° North 512 589 34,000  Level FlightAware ADS-B
Sun 06:34:15 AM -21.2850 147.2660 345° North 509 586 34,000  Level FlightAware ADS-B
Sun 06:34:51 AM -21.2160 147.2450 344° North 509 586 34,000  Level FlightAware ADS-B
Sun 06:35:25 AM -21.0900 147.2100 345° North 504 580 34,000  Level FlightAware ADS-B
Sun 06:36:02 AM -21.0080 147.1860 345° North 503 579 34,000  Level FlightAware ADS-B
Sun 06:36:33 AM -20.9370 147.1660 345° North 502 578 34,000  Level FlightAware ADS-B
Sun 06:36:35 AM -20.9322 147.1655 345° North 503 579 34,000  Level Aus ATC (RADAR)
Sun 06:37:11 AM -20.8500 147.1410 345° North 503 579 34,000  Level FlightAware ADS-B
Sun 06:37:43 AM -20.7790 147.1200 345° North 504 580 34,000  Level FlightAware ADS-B
Sun 06:38:19 AM -20.6990 147.0970 345° North 506 582 34,000  Level FlightAware ADS-B
Sun 06:38:53 AM -20.6200 147.0740 345° North 507 583 34,000 83 Level FlightAware ADS-B
Sun 06:39:31 AM -20.5340 147.0490 345° North 508 585 34,100 86 Climbing FlightAware ADS-B
Sun 06:40:03 AM -20.4600 147.0280 345° North 510 587 34,100  Level FlightAware ADS-B
Sun 06:40:39 AM -20.3790 147.0050 345° North 512 589 34,100  Level FlightAware ADS-B
Sun 06:41:15 AM -20.2950 146.9800 344° North 512 589 34,100 -86 Level FlightAware ADS-B
Sun 06:41:49 AM -20.2164 146.9596 344° North 513 590 34,000  Descending Aus ATC (RADAR)
Sun 06:41:51 AM -20.2130 146.9570 344° North 514 592 34,100 176 Climbing FlightAware ADS-B
Sun 06:42:23 AM -20.1400 146.9360 345° North 514 592 34,100  Level FlightAware ADS-B
Sun 06:43:01 AM -20.0520 146.9110 345° North 513 590 34,100  Level FlightAware ADS-B
Sun 06:43:35 AM -19.9740 146.8890 345° North 511 588 34,100 -87 Level FlightAware ADS-B
Sun 06:44:10 AM -19.8950 146.8660 345° North 510 587 34,000 -88 Descending FlightAware ADS-B
Sun 06:44:43 AM -19.8180 146.8440 345° North 509 586 34,000  Level FlightAware ADS-B
Sun 06:45:18 AM -19.7400 146.8220 345° North 509 586 34,000  Level FlightAware ADS-B
Sun 06:45:55 AM -19.6540 146.7970 345° North 508 585 34,000  Level FlightAware ADS-B
Sun 06:46:29 AM -19.5780 146.7760 345° North 508 585 34,000  Level FlightAware ADS-B
Sun 06:47:05 AM -19.4950 146.7520 345° North 508 585 34,000  Level FlightAware ADS-B
Sun 06:47:36 AM -19.4270 146.7330 345° North 509 586 34,000  Level FlightAware ADS-B
Sun 06:48:17 AM -19.3340 146.7060 345° North 510 587 34,000 82 Level FlightAware ADS-B
Sun 06:48:49 AM -19.2560 146.6865 345° North 512 589 34,100 158 Climbing Aus ATC (RADAR)
Sun 06:48:55 AM -19.2460 146.6810 345° North 509 586 34,100  Level FlightAware ADS-B
Sun 06:49:33 AM -19.1600 146.6570 345° North 509 586 34,100  Level FlightAware ADS-B
Sun 06:50:00 AM -19.1010 146.6400 345° North 509 586 34,100 -87 Level FlightAware ADS-B
Sun 06:50:42 AM -19.0000 146.6120 345° North 510 587 34,000 -77 Descending FlightAware ADS-B
Sun 06:51:18 AM -18.9160 146.5880 345° North 510 587 34,000  Level FlightAware ADS-B
Sun 06:51:48 AM -18.8480 146.5690 345° North 509 586 34,000  Level FlightAware ADS-B
Sun 06:52:29 AM -18.7570 146.5430 345° North 509 586 34,000  Level FlightAware ADS-B
Sun 06:53:00 AM -18.6840 146.5230 345° North 509 586 34,000  Level FlightAware ADS-B
Sun 06:53:36 AM -18.6020 146.5000 345° North 509 586 34,000  Level FlightAware ADS-B
Sun 06:54:12 AM -18.5210 146.4770 345° North 509 586 34,000  Level FlightAware ADS-B
Sun 06:54:44 AM -18.4450 146.4560 345° North 509 586 34,000  Level FlightAware ADS-B
Sun 06:55:22 AM -18.3620 146.4320 345° North 508 585 34,000  Level FlightAware ADS-B
Sun 06:55:58 AM -18.2790 146.4090 345° North 506 582 34,000  Level FlightAware ADS-B
Sun 06:56:30 AM -18.2060 146.3890 345° North 505 581 34,000  Level FlightAware ADS-B
Sun 06:57:06 AM -18.1270 146.3670 345° North 505 581 34,000  Level FlightAware ADS-B
Sun 06:57:38 AM -18.0530 146.3460 345° North 505 581 34,000  Level FlightAware ADS-B
Sun 06:58:18 AM -17.9640 146.3210 345° North 497 572 34,000  Level FlightAware ADS-B
Sun 06:58:48 AM -17.8980 146.3030 345° North 497 572 34,000  Level FlightAware ADS-B
Sun 06:59:25 AM -17.8160 146.2800 345° North 497 572 34,000  Level FlightAware ADS-B
Sun 07:00:03 AM -17.7222 146.2549 345° North 504 580 34,000  Level Aus ATC (RADAR)
Sun 07:00:03 AM -17.7280 146.2550 345° North 497 572 34,000  Level FlightAware ADS-B
Sun 07:00:38 AM -17.6470 146.2330 345° North 498 573 34,000  Level FlightAware ADS-B
Sun 07:01:08 AM -17.5810 146.2150 345° North 497 572 34,000 92 Level FlightAware ADS-B
Sun 07:01:43 AM -17.5000 146.1920 345° North 497 572 34,100 80 Climbing FlightAware ADS-B
Sun 07:02:23 AM -17.4080 146.1670 345° North 496 571 34,100 -86 Level FlightAware ADS-B
Sun 07:02:53 AM -17.3410 146.1480 345° North 497 572 34,000 -79 Descending FlightAware ADS-B
Sun 07:03:39 AM -17.2370 146.1190 345° North 498 573 34,000  Level FlightAware ADS-B
Sun 07:04:14 AM -17.1580 146.0970 345° North 496 571 34,000  Level FlightAware ADS-B
Sun 07:04:49 AM -17.0780 146.0760 346° North 502 578 34,000  Level FlightAware ADS-B
Sun 07:05:19 AM -17.0120 146.0570 346° North 496 571 34,000 182 Level FlightAware ADS-B
Sun 07:05:22 AM -16.9999 146.0542 346° North 492 566 34,100  Climbing Aus ATC (RADAR)
Sun 07:05:57 AM -16.9207 146.0322 346° North 500 575 34,000 -143 Descending Aus ATC (RADAR)
Sun 07:06:04 AM -16.9100 146.0290 346° North 497 572 34,000  Level FlightAware ADS-B
Sun 07:06:39 AM -16.8300 146.0070 345° North 497 572 34,000  Level FlightAware ADS-B
Sun 07:07:14 AM -16.7510 145.9850 345° North 496 571 34,000  Level FlightAware ADS-B
Sun 07:07:17 AM -16.7403 145.9824 345° North 495 570 34,000  Level Aus ATC (RADAR)
Sun 07:07:49 AM -16.6720 145.9640 345° North 497 572 34,000  Level FlightAware ADS-B
Sun 07:07:52 AM -16.6607 145.9606 345° North 502 578 34,000  Level Aus ATC (RADAR)
Sun 07:08:24 AM -16.5930 145.9420 345° North 498 573 34,000  Level FlightAware ADS-B
Sun 07:08:57 AM -16.5138 145.9203 345° North 496 571 34,000  Level Aus ATC (RADAR)
Sun 07:09:04 AM -16.5020 145.9170 345° North 499 574 34,000  Level FlightAware ADS-B
Sun 07:09:34 AM -16.4340 145.8980 345° North 499 574 34,000  Level FlightAware ADS-B
Sun 07:10:09 AM -16.3550 145.8770 346° North 500 575 34,000  Level FlightAware ADS-B
Sun 07:10:49 AM -16.2610 145.8510 345° North 500 575 34,000  Level FlightAware ADS-B
Sun 07:11:19 AM -16.1940 145.8320 345° North 501 577 34,000  Level FlightAware ADS-B
Sun 07:11:34 AM -16.1600 145.8230 346° North 501 577 34,000  Level FlightAware ADS-B
Sun 07:12:16 AM -16.0585 145.7944 346° North 506 582 34,000  Level Aus ATC (RADAR)
Sun 07:12:31 AM -16.0249 145.7860 346° North 500 575 34,000  Level Aus ATC (RADAR)
Sun 07:12:39 AM -16.0090 145.7820 346° North 511 588 34,000  Level FlightAware ADS-B
Sun 07:13:10 AM -15.9380 145.7630 346° North 512 589 34,000 78 Level FlightAware ADS-B
Sun 07:13:56 AM -15.8291 145.7323 346° North 505 581 34,100  Climbing Aus ATC (RADAR)
Sun 07:14:05 AM -15.8240 145.7310 346° North 513 590 34,000 -133 Descending FlightAware ADS-B
Sun 07:14:41 AM -15.7540 145.7120 345° North 513 590 34,000  Level FlightAware ADS-B
Sun 07:15:17 AM -15.6840 145.6920 345° North 513 590 34,000  Level FlightAware ADS-B
Sun 07:15:53 AM -15.6130 145.6730 346° North 513 590 34,000  Level FlightAware ADS-B
Sun 07:16:29 AM -15.5430 145.6530 345° North 513 590 34,000  Level FlightAware ADS-B
Sun 07:17:06 AM -15.4710 145.6330 345° North 513 590 34,000  Level FlightAware ADS-B
Sun 07:17:42 AM -15.4010 145.6130 345° North 513 590 34,000  Level FlightAware ADS-B
Sun 07:18:18 AM -15.3310 145.5940 345° North 513 590 34,000 87 Level FlightAware ADS-B
Sun 07:18:51 AM -15.1508 145.5486 345° North 504 580 34,100  Climbing Aus ATC (RADAR)
Sun 07:18:54 AM -15.2610 145.5750 345° North 513 590 34,000 -154 Descending FlightAware ADS-B
Sun 07:19:30 AM -15.1910 145.5550 345° North 513 590 34,000  Level FlightAware ADS-B
Sun 07:20:06 AM -15.1200 145.5360 346° North 513 590 34,000  Level FlightAware ADS-B
Sun 07:20:41 AM -14.9013 145.4814 346° North 500 575 34,000  Level Aus ATC (RADAR)
Sun 07:20:42 AM -15.0500 145.5160 346° North 513 590 34,000  Level FlightAware ADS-B
Sun 07:21:19 AM -14.9780 145.4960 345° North 513 590 34,000  Level FlightAware ADS-B
Sun 07:21:55 AM -14.9080 145.4770 345° North 513 590 34,000  Level FlightAware ADS-B
Sun 07:22:26 AM -14.6649 145.4180 345° North 498 573 34,000  Level Aus ATC (RADAR)
Sun 07:22:31 AM -14.8380 145.4570 345° North 513 590 34,000  Level FlightAware ADS-B
Sun 07:23:01 AM -14.5860 145.3950 345° North 501 577 34,000  Level Aus ATC (RADAR)
Sun 07:23:07 AM -14.7680 145.4380 345° North 513 590 34,000 109 Level FlightAware ADS-B
Sun 07:23:56 AM -14.4620 145.3627 345° North 498 573 34,100  Climbing Aus ATC (RADAR)
Sun 07:24:26 AM -14.3942 145.3444 345° North 499 574 34,000 -71 Descending Aus ATC (RADAR)
Sun 07:25:20 AM -14.2659 145.3211 350° North 507 583 34,000 87 Level Aus ATC (RADAR)
Sun 07:25:35 AM -14.2309 145.3158 352° North 506 582 34,100 120 Climbing Aus ATC (RADAR)
Sun 07:26:10 AM -14.1491 145.3038 352° North 505 581 34,100  Level Aus ATC (RADAR)
Sun 07:27:20 AM -13.9857 145.2774 351° North 506 582 34,100  Level Aus ATC (RADAR)
Sun 07:27:40 AM -13.9390 145.2703 352° North 504 580 34,100 -80 Level Aus ATC (RADAR)
Sun 07:28:35 AM -13.8104 145.2491 351° North 505 581 34,000 -71 Descending Aus ATC (RADAR)
Sun 07:29:05 AM -13.7405 145.2373 351° North 504 580 34,000  Level Aus ATC (RADAR)
Sun 07:30:00 AM -13.6124 145.2187 352° North 503 579 34,000  Level Aus ATC (RADAR)
Sun 07:30:10 AM -13.5893 145.2148 351° North 502 578 34,000 133 Level Aus ATC (RADAR)
Sun 07:30:45 AM -13.5076 145.2009 351° North 503 579 34,100 67 Climbing Aus ATC (RADAR)
Sun 07:31:40 AM -13.3800 145.1824 352° North 500 575 34,100 -92 Level Aus ATC (RADAR)
Sun 07:31:50 AM -13.3566 145.1789 352° North 501 577 34,000 -92 Descending Aus ATC (RADAR)
Sun 07:32:45 AM -13.2281 145.1654 354° North 500 575 34,000  Level Aus ATC (RADAR)
Sun 07:33:30 AM -13.1249 145.1429 348° North 500 575 34,000  Level Aus ATC (RADAR)
Sun 07:34:00 AM -13.0557 145.1315 351° North 498 573 34,000  Level Aus ATC (RADAR)
Sun 07:34:54 AM -12.9288 145.1112 351° North 497 572 34,000  Level Aus ATC (RADAR)
Sun 07:35:04 AM -12.9057 145.1078 352° North 496 571 34,000 -133 Level Aus ATC (RADAR)
Sun 07:35:39 AM -12.8252 145.0946 351° North 496 571 33,900 -100 Descending Aus ATC (RADAR)
Sun 07:36:04 AM -12.7683 145.0855 351° North 496 571 33,900 25 Level Aus ATC (RADAR)
Sun 07:38:23 AM -12.4802 145.0387 355° North 36,000 25 Climbing Aus ATC (Calculated)
Sun 07:40:00 AM -12.2774 145.0059 351° North  Level FlightAware Approximate
Sun 07:41:00 AM -12.1520 144.9856 351° North  Level FlightAware Approximate
Sun 07:41:04 AM -12.1201 144.9804 355° North 36,000  Level Aus ATC (Calculated)
Sun 07:41:40 AM -12.0600 144.9707 355° North 36,000  Level Aus ATC (Calculated)
Sun 07:43:00 AM -11.8928 144.9437 351° North  Level FlightAware Approximate
Sun 07:44:00 AM -12.0182 144.9639 171° South  Level FlightAware Approximate
Sun 07:45:00 AM -11.8928 144.9437 351° North  Level FlightAware Approximate
Sun 07:45:36 AM -11.4809 144.8792 355° North 36,000  Level Aus ATC (Calculated)
Sun 07:46:00 AM -11.8966 144.9447 351° North  Level FlightAware Approximate
Sun 07:47:00 AM -11.3052 144.8515 351° North  Level FlightAware Approximate
Sun 07:48:00 AM -11.1797 144.8318 351° North  Level FlightAware Approximate
Sun 07:49:00 AM -11.0542 144.8121 351° North  Level FlightAware Approximate
Sun 07:50:00 AM -10.9287 144.7923 351° North  Level FlightAware Approximate
Sun 07:51:00 AM -10.8032 144.7726 351° North  Level FlightAware Approximate
Sun 07:52:00 AM -10.6777 144.7530 351° North  Level FlightAware Approximate
Sun 07:53:00 AM -10.5522 144.7333 351° North  Level FlightAware Approximate
Sun 07:54:00 AM -10.4267 144.7137 351° North  Level FlightAware Approximate
Sun 07:55:00 AM -10.3012 144.6940 351° North  Level FlightAware Approximate
Sun 07:56:00 AM -10.1757 144.6744 351° North  Level FlightAware Approximate
Sun 07:57:00 AM -10.0502 144.6548 351° North  Level FlightAware Approximate
Sun 07:58:00 AM -9.9247 144.6352 351° North  Level FlightAware Approximate
Sun 07:59:00 AM -9.7992 144.6156 351° North  Level FlightAware Approximate
Sun 08:00:00 AM -9.6737 144.5961 351° North  Level FlightAware Approximate
Sun 08:01:00 AM -9.5482 144.5765 351° North  Level FlightAware Approximate
Sun 08:02:00 AM -9.4227 144.5570 351° North  Level FlightAware Approximate
Sun 08:02:18 AM -9.0892 144.5052 356° North 36,000  Level Aus ATC (Calculated)
Sun 08:04:00 AM -8.8758 144.4721 351° North  Level FlightAware Approximate
Sun 08:05:00 AM -8.7503 144.4526 351° North  Level FlightAware Approximate
Sun 08:06:00 AM -8.6248 144.4332 351° North  Level FlightAware Approximate
Sun 08:07:00 AM -8.4992 144.4138 351° North  Level FlightAware Approximate
Sun 08:08:00 AM -8.3737 144.3943 351° North  Level FlightAware Approximate
Sun 08:09:00 AM -8.2482 144.3749 351° North  Level FlightAware Approximate
Sun 08:10:00 AM -8.1227 144.3555 351° North  Level FlightAware Approximate
Sun 08:11:00 AM -7.9971 144.3362 351° North  Level FlightAware Approximate
Sun 08:12:00 AM -7.8716 144.3168 351° North  Level FlightAware Approximate
Sun 08:13:00 AM -7.7461 144.2974 351° North  Level FlightAware Approximate
Sun 08:14:00 AM -7.6206 144.2781 351° North  Level FlightAware Approximate
Sun 08:15:00 AM -7.4951 144.2588 351° North  Level FlightAware Approximate
Sun 08:16:00 AM -7.3695 144.2394 351° North  Level FlightAware Approximate
Sun 08:17:00 AM -7.4951 144.2588 171° South  Level FlightAware Approximate
Sun 08:18:00 AM -7.3695 144.2394 351° North  Level FlightAware Approximate
Sun 08:19:00 AM -7.4951 144.2588 171° South  Level FlightAware Approximate
Sun 08:20:00 AM -7.3695 144.2394 351° North  Level FlightAware Approximate
Sun 08:21:00 AM -7.4951 144.2588 171° South  Level FlightAware Approximate
Sun 08:22:00 AM -7.3650 144.2460 358° North  Level FlightAware Approximate
Sun 08:23:00 AM -7.2381 144.2417 358° North  Level FlightAware Approximate
Sun 08:24:00 AM -7.1112 144.2375 358° North  Level FlightAware Approximate
Sun 08:25:00 AM -6.9843 144.2332 358° North  Level FlightAware Approximate
Sun 08:26:00 AM -6.8574 144.2289 358° North  Level FlightAware Approximate
Sun 08:27:00 AM -6.7305 144.2246 358° North  Level FlightAware Approximate
Sun 08:28:00 AM -6.6036 144.2203 358° North  Level FlightAware Approximate
Sun 08:29:00 AM -6.4767 144.2161 358° North  Level FlightAware Approximate
Sun 08:30:00 AM -6.3497 144.2118 358° North  Level FlightAware Approximate
Sun 08:31:00 AM -6.2228 144.2075 358° North  Level FlightAware Approximate
Sun 08:32:00 AM -6.0959 144.2033 358° North  Level FlightAware Approximate
Sun 08:33:00 AM -5.9690 144.1990 358° North  Level FlightAware Approximate
Sun 08:34:00 AM -5.8421 144.1947 358° North  Level FlightAware Approximate
Sun 08:35:00 AM -5.7152 144.1905 358° North  Level FlightAware Approximate
Sun 08:36:00 AM -5.5883 144.1862 358° North  Level FlightAware Approximate
Sun 08:37:00 AM -5.4614 144.1820 358° North  Level FlightAware Approximate
Sun 08:38:00 AM -5.3345 144.1777 358° North  Level FlightAware Approximate
Sun 08:39:00 AM -5.2076 144.1735 358° North  Level FlightAware Approximate
Sun 08:40:00 AM -5.0806 144.1692 358° North  Level FlightAware Approximate
Sun 08:41:00 AM -4.9537 144.1650 358° North  Level FlightAware Approximate
Sun 08:42:00 AM -4.8268 144.1607 358° North  Level FlightAware Approximate
Sun 08:43:00 AM -4.6999 144.1565 358° North  Level FlightAware Approximate
Sun 08:44:00 AM -4.5730 144.1522 358° North  Level FlightAware Approximate
Sun 08:45:00 AM -4.4461 144.1480 358° North  Level FlightAware Approximate
Sun 08:46:00 AM -4.3192 144.1438 358° North  Level FlightAware Approximate
Sun 08:47:00 AM -4.1923 144.1395 358° North  Level FlightAware Approximate
Sun 08:48:00 AM -4.0654 144.1353 358° North  Level FlightAware Approximate
Sun 08:49:00 AM -3.9385 144.1310 358° North  Level FlightAware Approximate
Sun 08:50:00 AM -3.8115 144.1268 358° North  Level FlightAware Approximate
Sun 08:51:00 AM -3.6846 144.1226 358° North  Level FlightAware Approximate
Sun 08:52:00 AM -3.5577 144.1183 358° North  Level FlightAware Approximate
Sun 08:53:00 AM -3.4308 144.1141 358° North  Level FlightAware Approximate
Sun 08:54:00 AM -3.3039 144.1099 358° North  Level FlightAware Approximate
Sun 08:55:00 AM -3.1770 144.1057 358° North  Level FlightAware Approximate
Sun 08:56:00 AM -3.0501 144.1014 358° North  Level FlightAware Approximate
Sun 08:57:00 AM -2.9232 144.0972 358° North  Level FlightAware Approximate
Sun 08:58:00 AM -2.7963 144.0930 358° North  Level FlightAware Approximate
Sun 08:58:39 AM -1.6667 144.0500 358° North 500 575 36,000  Level Oakland Oceanic (ODAPS)
Sun 08:59:00 AM -2.6693 144.0887 358° North  Level FlightAware Approximate
Sun 09:00:00 AM -2.5424 144.0845 358° North  Level FlightAware Approximate
Sun 09:01:00 AM -2.4155 144.0803 358° North  Level FlightAware Approximate
Sun 09:02:00 AM -2.2886 144.0761 358° North  Level FlightAware Approximate
Sun 09:03:00 AM -2.1617 144.0719 358° North  Level FlightAware Approximate
Sun 09:03:08 AM -1.1333 144.0333 358° North 518 596 36,000  Level Oakland Oceanic (ODAPS)
Sun 09:04:00 AM -0.8333 144.0250 358° North 500 575 36,000  Level FlightAware Transoceanic
Sun 09:05:00 AM -0.6944 144.0208 358° North 500 575 36,000  Level FlightAware Transoceanic
Sun 09:06:00 AM -0.5556 144.0167 358° North 500 575 36,000  Level FlightAware Transoceanic
Sun 09:07:00 AM -0.4167 144.0125 358° North 500 575 36,000  Level FlightAware Transoceanic
Sun 09:07:20 AM -0.5500 144.0167 358° North 500 575 36,000  Level Oakland Oceanic (ODAPS)
Sun 09:08:00 AM -0.2778 144.0083 358° North 500 575 36,000  Level FlightAware Transoceanic
Sun 09:09:00 AM -0.1417 144.0042 358° North 518 596 36,000  Level FlightAware Transoceanic
Sun 09:10:00 AM 0.0000 144.0000 356° North 518 596 36,000  Level FlightAware Transoceanic
Sun 09:11:00 AM 0.1351 143.9897 356° North 518 596 36,000  Level FlightAware Transoceanic
Sun 09:11:29 AM 0.0000 144.0000 356° North 475 547 36,000  Level Oakland Oceanic (ODAPS)
Sun 09:12:00 AM 0.2703 143.9793 356° North 518 596 36,000  Level FlightAware Transoceanic
Sun 09:13:00 AM 0.2703 143.9793 356° North 500 575 36,000  Level FlightAware Transoceanic
Sun 09:14:00 AM 0.4054 143.9690 356° North 500 575 36,000  Level FlightAware Transoceanic
Sun 09:15:00 AM 0.5405 143.9587 356° North 500 575 36,000  Level FlightAware Transoceanic
Sun 09:16:00 AM 0.6757 143.9483 356° North 500 575 36,000  Level FlightAware Transoceanic
Sun 09:17:00 AM 0.7895 143.9396 356° North 475 547 36,000  Level FlightAware Transoceanic
Sun 09:18:00 AM 0.9211 143.9296 356° North 475 547 36,000  Level FlightAware Transoceanic
Sun 09:19:00 AM 1.0526 143.9195 356° North 475 547 36,000  Level FlightAware Transoceanic
Sun 09:20:00 AM 1.1842 143.9094 356° North 475 547 36,000  Level FlightAware Transoceanic
Sun 09:21:00 AM 1.3158 143.8994 356° North 475 547 36,000  Level FlightAware Transoceanic
Sun 09:21:18 AM 1.2333 143.9000 356° North 472 543 36,000  Level Oakland Oceanic (ODAPS)
Sun 09:22:00 AM 1.4474 143.8893 356° North 475 547 36,000  Level FlightAware Transoceanic
Sun 09:23:00 AM 1.5790 143.8792 356° North 475 547 36,000  Level FlightAware Transoceanic
Sun 09:24:00 AM 1.7105 143.8692 356° North 475 547 36,000  Level FlightAware Transoceanic
Sun 09:25:00 AM 1.8421 143.8591 356° North 475 547 36,000  Level FlightAware Transoceanic
Sun 09:26:00 AM 1.9737 143.8490 356° North 475 547 36,000  Level FlightAware Transoceanic
Sun 09:27:00 AM 2.0405 143.8394 356° North 472 543 36,000  Level FlightAware Transoceanic
Sun 09:28:00 AM 2.1750 143.8293 356° North 472 543 36,000  Level FlightAware Transoceanic
Sun 09:29:00 AM 2.3095 143.8192 356° North 472 543 36,000  Level FlightAware Transoceanic
Sun 09:30:00 AM 2.4441 143.8091 356° North 472 543 36,000  Level FlightAware Transoceanic
Sun 09:31:00 AM 2.5786 143.7990 356° North 472 543 36,000  Level FlightAware Transoceanic
Sun 09:32:00 AM 2.7131 143.7889 356° North 472 543 36,000  Level FlightAware Transoceanic
Sun 09:33:00 AM 2.8476 143.7788 356° North 472 543 36,000  Level FlightAware Transoceanic
Sun 09:34:00 AM 2.9822 143.7687 356° North 472 543 36,000  Level FlightAware Transoceanic
Sun 09:34:54 AM 3.1000 143.7667 356° North 470 541 36,000  Level Oakland Oceanic (ODAPS)
Sun 09:35:00 AM 3.1167 143.7586 356° North 472 543 36,000  Level FlightAware Transoceanic
Sun 09:36:00 AM 3.2512 143.7485 356° North 472 543 36,000  Level FlightAware Transoceanic
Sun 09:37:00 AM 3.3857 143.7384 356° North 472 543 36,000  Level FlightAware Transoceanic
Sun 09:38:00 AM 3.5203 143.7282 356° North 472 543 36,000  Level FlightAware Transoceanic
Sun 09:39:00 AM 3.6548 143.7181 356° North 472 543 36,000  Level FlightAware Transoceanic
Sun 09:40:00 AM 3.7893 143.7080 356° North 472 543 36,000  Level FlightAware Transoceanic
Sun 09:41:00 AM 3.9143 143.7025 355° North 470 541 36,000  Level FlightAware Transoceanic
Sun 09:42:00 AM 4.0500 143.6918 355° North 470 541 36,000  Level FlightAware Transoceanic
Sun 09:43:00 AM 4.1857 143.6810 355° North 470 541 36,000  Level FlightAware Transoceanic
Sun 09:44:00 AM 4.3214 143.6703 355° North 470 541 36,000  Level FlightAware Transoceanic
Sun 09:45:00 AM 4.4571 143.6596 355° North 470 541 36,000  Level FlightAware Transoceanic
Sun 09:46:00 AM 4.5929 143.6489 355° North 470 541 36,000  Level FlightAware Transoceanic
Sun 09:47:00 AM 4.7286 143.6381 355° North 470 541 36,000  Level FlightAware Transoceanic
Sun 09:48:00 AM 4.8643 143.6274 355° North 470 541 36,000 1,132 Level FlightAware Transoceanic
Sun 09:48:46 AM 4.9500 143.6167 360° North 476 548 38,000  Climbing Oakland Oceanic (ODAPS)
Sun 09:49:00 AM 5.0000 143.6167 351° North 470 541 36,000 -1,622 Descending FlightAware Transoceanic
Sun 09:50:00 AM 5.1357 143.5951 351° North 470 541 36,000  Level FlightAware Transoceanic
Sun 09:51:00 AM 5.2713 143.5736 351° North 470 541 36,000  Level FlightAware Transoceanic
Sun 09:52:00 AM 5.4070 143.5520 351° North 470 541 36,000  Level FlightAware Transoceanic
Sun 09:53:00 AM 5.5427 143.5304 351° North 470 541 36,000 1,000 Level FlightAware Transoceanic
Sun 09:54:00 AM 5.6783 143.5088 351° North 476 548 38,000 1,000 Climbing FlightAware Transoceanic
Sun 09:55:00 AM 5.8140 143.4872 351° North 476 548 38,000  Level FlightAware Transoceanic
Sun 09:56:00 AM 5.9496 143.4656 351° North 476 548 38,000  Level FlightAware Transoceanic
Sun 09:57:00 AM 6.0853 143.4440 351° North 476 548 38,000  Level FlightAware Transoceanic
Sun 09:58:00 AM 6.2210 143.4224 351° North 476 548 38,000  Level FlightAware Transoceanic
Sun 09:59:00 AM 6.3566 143.4007 351° North 476 548 38,000  Level FlightAware Transoceanic
Sun 10:00:00 AM 6.4923 143.3791 351° North 476 548 38,000  Level FlightAware Transoceanic
Sun 10:01:00 AM 6.6279 143.3574 351° North 476 548 38,000  Level FlightAware Transoceanic
Sun 10:02:00 AM 6.7636 143.3358 351° North 476 548 38,000  Level FlightAware Transoceanic
Sun 10:02:38 AM 6.7667 143.3333 351° North 479 551 38,000  Level Oakland Oceanic (ODAPS)
Sun 10:03:00 AM 6.8992 143.3141 351° North 476 548 38,000  Level FlightAware Transoceanic
Sun 10:04:00 AM 7.0349 143.2924 351° North 476 548 38,000  Level FlightAware Transoceanic
Sun 10:05:00 AM 7.1705 143.2706 351° North 476 548 38,000  Level FlightAware Transoceanic
Sun 10:06:00 AM 7.3062 143.2489 351° North 476 548 38,000  Level FlightAware Transoceanic
Sun 10:07:00 AM 7.4418 143.2272 351° North 476 548 38,000  Level FlightAware Transoceanic
Sun 10:08:00 AM 7.5459 143.2091 351° North 479 551 38,000  Level FlightAware Transoceanic
Sun 10:09:00 AM 7.6758 143.1883 351° North 479 551 38,000  Level FlightAware Transoceanic
Sun 10:10:00 AM 7.8056 143.1675 351° North 479 551 38,000  Level FlightAware Transoceanic
Sun 10:11:00 AM 7.9355 143.1467 351° North 479 551 38,000  Level FlightAware Transoceanic
Sun 10:12:00 AM 8.0653 143.1260 351° North 479 551 38,000  Level FlightAware Transoceanic
Sun 10:13:00 AM 8.1952 143.1051 351° North 479 551 38,000  Level FlightAware Transoceanic
Sun 10:14:00 AM 8.3251 143.0843 351° North 479 551 38,000  Level FlightAware Transoceanic
Sun 10:15:00 AM 8.4549 143.0635 351° North 479 551 38,000  Level FlightAware Transoceanic
Sun 10:16:00 AM 8.5848 143.0426 351° North 479 551 38,000  Level FlightAware Transoceanic
Sun 10:16:30 AM 8.5667 143.0500 351° North 478 550 38,000  Level Oakland Oceanic (ODAPS)
Sun 10:17:00 AM 8.7147 143.0218 351° North 479 551 38,000  Level FlightAware Transoceanic
Sun 10:18:00 AM 8.8445 143.0009 351° North 479 551 38,000  Level FlightAware Transoceanic
Sun 10:19:00 AM 8.9744 142.9800 351° North 479 551 38,000  Level FlightAware Transoceanic
Sun 10:20:00 AM 9.1042 142.9591 351° North 479 551 38,000  Level FlightAware Transoceanic
Sun 10:21:00 AM 9.2341 142.9382 351° North 479 551 38,000  Level FlightAware Transoceanic
Sun 10:22:00 AM 9.2849 142.9320 351° North 478 550 38,000  Level FlightAware Transoceanic
Sun 10:23:00 AM 9.4046 142.9123 351° North 478 550 38,000  Level FlightAware Transoceanic
Sun 10:24:00 AM 9.5243 142.8926 351° North 478 550 38,000  Level FlightAware Transoceanic
Sun 10:25:00 AM 9.6440 142.8728 351° North 478 550 38,000  Level FlightAware Transoceanic
Sun 10:26:00 AM 9.7636 142.8531 351° North 478 550 38,000  Level FlightAware Transoceanic
Sun 10:27:00 AM 9.8833 142.8333 356° North 478 550 38,000  Level FlightAware Transoceanic
Sun 10:27:07 AM 9.9667 142.8500 356° North 500 575 38,000  Level Guam Center
Sun 10:28:00 AM 10.0225 142.8246 356° North 478 550 38,000  Level FlightAware Transoceanic
Sun 10:28:07 AM 10.0833 142.8333 352° North 470 541 38,000  Level Guam Center
Sun 10:29:00 AM 10.1618 142.8158 356° North 478 550 38,000  Level FlightAware Transoceanic
Sun 10:29:07 AM 10.2167 142.8167 353° North 460 529 38,000  Level Guam Center
Sun 10:30:00 AM 10.3010 142.8070 356° North 478 550 38,000  Level FlightAware Transoceanic
Sun 10:30:08 AM 10.3500 142.8000 353° North 470 541 38,000  Level Guam Center
Sun 10:31:00 AM 10.4402 142.7982 356° North 478 550 38,000  Level FlightAware Transoceanic
Sun 10:31:08 AM 10.4833 142.8000 360° North 460 529 38,000  Level Guam Center
Sun 10:32:00 AM 10.5794 142.7895 356° North 478 550 38,000 -100 Level FlightAware Transoceanic
Sun 10:32:08 AM 10.6000 142.7833 352° North 460 529 37,900 265 Descending Guam Center
Sun 10:33:08 AM 10.7333 142.7667 353° North 450 518 38,300 800 Climbing Guam Center
Sun 10:34:08 AM 10.8500 142.7500 352° North 460 529 39,500 850 Climbing Guam Center
Sun 10:35:08 AM 10.9833 142.7333 353° North 460 529 40,000 250 Climbing Guam Center
Sun 10:36:08 AM 11.1167 142.7333 360° North 460 529 40,000  Level Guam Center
Sun 10:37:08 AM 11.2500 142.7167 353° North 470 541 40,000  Level Guam Center
Sun 10:38:08 AM 11.3833 142.7000 353° North 470 541 40,000  Level Guam Center
Sun 10:39:09 AM 11.5000 142.6833 352° North 470 541 40,000  Level Guam Center
Sun 10:40:09 AM 11.6333 142.6667 353° North 480 552 40,000  Level Guam Center
Sun 10:41:09 AM 11.7667 142.6500 353° North 480 552 40,000  Level Guam Center
Sun 10:42:09 AM 11.9000 142.6500 360° North 480 552 40,000  Level Guam Center
Sun 10:43:09 AM 12.0333 142.6333 353° North 480 552 40,000  Level Guam Center
Sun 10:44:09 AM 12.1667 142.6167 353° North 470 541 40,000  Level Guam Center
Sun 10:45:09 AM 12.3000 142.6000 353° North 470 541 40,000  Level Guam Center
Sun 10:46:10 AM 12.4333 142.6000 360° North 470 541 40,000  Level Guam Center
Sun 10:47:10 AM 12.5667 142.5833 353° North 480 552 40,000  Level Guam Center
Sun 10:48:10 AM 12.6833 142.5667 352° North 470 541 40,000  Level Guam Center
Sun 10:49:10 AM 12.8167 142.5500 353° North 480 552 40,000  Level Guam Center
Sun 10:50:10 AM 12.9500 142.5333 353° North 480 552 40,000  Level Guam Center
Sun 10:51:10 AM 13.0833 142.5167 353° North 480 552 40,000  Level Guam Center
Sun 10:52:11 AM 13.2167 142.5167 360° North 470 541 40,000  Level Guam Center
Sun 10:53:11 AM 13.3500 142.5000 353° North 480 552 40,000  Level Guam Center
Sun 10:54:11 AM 13.4833 142.4833 353° North 480 552 40,000  Level Guam Center
Sun 10:55:11 AM 13.6167 142.4667 353° North 470 541 40,000  Level Guam Center
Sun 10:56:11 AM 13.7500 142.4500 353° North 470 541 40,000  Level Guam Center
Sun 10:57:11 AM 13.8833 142.4500 360° North 470 541 40,000  Level Guam Center
Sun 10:58:11 AM 14.0167 142.4333 353° North 470 541 40,000  Level Guam Center
Sun 10:59:12 AM 14.1333 142.4167 352° North 470 541 40,000  Level Guam Center
Sun 11:00:12 AM 14.2667 142.4000 353° North 460 529 40,000  Level Guam Center
Sun 11:01:12 AM 14.4000 142.3833 353° North 470 541 40,000  Level Guam Center
Sun 11:02:12 AM 14.5333 142.3833 360° North 470 541 40,000  Level Guam Center
Sun 11:03:12 AM 14.6500 142.3667 352° North 460 529 40,000  Level Guam Center
Sun 11:04:12 AM 14.7833 142.3500 353° North 450 518 40,000  Level Guam Center
Sun 11:05:12 AM 14.9167 142.3333 353° North 470 541 40,000  Level Guam Center
Sun 11:06:12 AM 15.0333 142.3167 352° North 460 529 40,000  Level Guam Center
Sun 11:07:12 AM 15.1667 142.3167 360° North 460 529 40,000  Level Guam Center
Sun 11:08:13 AM 15.2833 142.3000 352° North 450 518 40,000  Level Guam Center
Sun 11:09:13 AM 15.4167 142.2833 353° North 450 518 40,000  Level Guam Center
Sun 11:10:13 AM 15.5333 142.2667 352° North 460 529 40,000  Level Guam Center
Sun 11:11:13 AM 15.6667 142.2667 360° North 460 529 40,000  Level Guam Center
Sun 11:12:13 AM 15.8000 142.2500 353° North 460 529 40,000  Level Guam Center
Sun 11:13:13 AM 15.9167 142.2333 352° North 450 518 40,000  Level Guam Center
Sun 11:14:13 AM 16.0500 142.2167 353° North 460 529 40,000  Level Guam Center
Sun 11:15:14 AM 16.1667 142.2000 352° North 460 529 40,000  Level Guam Center
Sun 11:16:14 AM 16.3000 142.2000 360° North 450 518 40,000  Level Guam Center
Sun 11:17:14 AM 16.4167 142.1833 352° North 450 518 40,000  Level Guam Center
Sun 11:18:14 AM 16.5500 142.1667 353° North 450 518 40,000  Level Guam Center
Sun 11:19:14 AM 16.6667 142.1500 352° North 450 518 40,000  Level Guam Center
Sun 11:22:00 AM 16.8897 142.1075 341° North  Level FlightAware Approximate
Sun 11:22:49 AM 17.1333 142.0333 341° North 461 531 40,000  Level Oakland Oceanic (ODAPS)
Sun 11:29:00 AM 17.8591 141.7695 341° North 461 531 40,000  Level FlightAware Transoceanic
Sun 11:29:14 AM 17.7500 141.8000 341° North 463 533 40,000  Level Oakland Oceanic (ODAPS)
Sun 11:30:00 AM 17.9801 141.7254 341° North 461 531 40,000  Level FlightAware Transoceanic
Sun 11:31:00 AM 18.1010 141.6811 341° North 461 531 40,000  Level FlightAware Transoceanic
Sun 11:32:00 AM 18.2219 141.6368 341° North 461 531 40,000  Level FlightAware Transoceanic
Sun 11:33:00 AM 18.3428 141.5925 341° North 461 531 40,000  Level FlightAware Transoceanic
Sun 11:34:00 AM 18.4637 141.5481 341° North 461 531 40,000  Level FlightAware Transoceanic
Sun 11:35:00 AM 18.6258 141.4816 341° North 463 533 40,000  Level FlightAware Transoceanic
Sun 11:36:00 AM 18.7508 141.4358 341° North 463 533 40,000  Level FlightAware Transoceanic
Sun 11:37:00 AM 18.8759 141.3900 341° North 463 533 40,000  Level FlightAware Transoceanic
Sun 11:38:00 AM 19.0009 141.3441 341° North 463 533 40,000  Level FlightAware Transoceanic
Sun 11:39:00 AM 19.1259 141.2981 341° North 463 533 40,000  Level FlightAware Transoceanic
Sun 11:40:00 AM 19.2510 141.2521 341° North 463 533 40,000  Level FlightAware Transoceanic
Sun 11:41:00 AM 19.3760 141.2060 341° North 463 533 40,000  Level FlightAware Transoceanic
Sun 11:41:55 AM 19.4333 141.1833 341° North 463 533 40,000  Level Oakland Oceanic (ODAPS)
Sun 11:42:00 AM 19.5010 141.1598 341° North 463 533 40,000  Level FlightAware Transoceanic
Sun 11:43:00 AM 19.6260 141.1136 341° North 463 533 40,000  Level FlightAware Transoceanic
Sun 11:44:00 AM 19.7509 141.0672 341° North 463 533 40,000  Level FlightAware Transoceanic
Sun 11:45:00 AM 19.8759 141.0209 341° North 463 533 40,000  Level FlightAware Transoceanic
Sun 11:46:00 AM 20.0009 140.9744 341° North 463 533 40,000  Level FlightAware Transoceanic
Sun 11:47:00 AM 20.1258 140.9279 341° North 463 533 40,000  Level FlightAware Transoceanic
Sun 11:48:00 AM 20.1567 140.9156 341° North 463 533 40,000  Level FlightAware Transoceanic
Sun 11:49:00 AM 20.2772 140.8707 341° North 463 533 40,000  Level FlightAware Transoceanic
Sun 11:50:00 AM 20.3977 140.8257 341° North 463 533 40,000  Level FlightAware Transoceanic
Sun 11:51:00 AM 20.5182 140.7807 341° North 463 533 40,000  Level FlightAware Transoceanic
Sun 11:52:00 AM 20.6386 140.7357 341° North 463 533 40,000  Level FlightAware Transoceanic
Sun 11:53:00 AM 20.7591 140.6905 341° North 463 533 40,000  Level FlightAware Transoceanic
Sun 11:54:00 AM 20.8796 140.6453 341° North 463 533 40,000  Level FlightAware Transoceanic
Sun 11:55:00 AM 21.0000 140.6000 342° North 463 533 40,000  Level FlightAware Transoceanic
Sun 11:56:00 AM 21.1292 140.5550 342° North 463 533 40,000  Level FlightAware Transoceanic
Sun 11:57:00 AM 21.2584 140.5100 342° North 463 533 40,000  Level FlightAware Transoceanic
Sun 11:58:00 AM 21.3876 140.4649 342° North 463 533 40,000  Level FlightAware Transoceanic
Sun 11:59:00 AM 21.5168 140.4197 342° North 463 533 40,000  Level FlightAware Transoceanic
Sun 12:00:00 PM 21.6460 140.3744 342° North 463 533 40,000  Level FlightAware Transoceanic
Sun 12:01:00 PM 21.7752 140.3291 342° North 463 533 40,000  Level FlightAware Transoceanic
Sun 12:02:00 PM 21.9043 140.2836 342° North 463 533 40,000  Level FlightAware Transoceanic
Sun 12:03:00 PM 22.0335 140.2381 342° North 463 533 40,000  Level FlightAware Transoceanic
Sun 12:04:00 PM 22.1626 140.1925 342° North 463 533 40,000  Level FlightAware Transoceanic
Sun 12:05:00 PM 22.2917 140.1468 342° North 463 533 40,000  Level FlightAware Transoceanic
Sun 12:06:00 PM 22.4208 140.1010 342° North 463 533 40,000  Level FlightAware Transoceanic
Sun 12:07:00 PM 22.5499 140.0551 342° North 463 533 40,000  Level FlightAware Transoceanic
Sun 12:08:00 PM 22.6790 140.0092 342° North 463 533 40,000  Level FlightAware Transoceanic
Sun 12:09:00 PM 22.8080 139.9632 342° North 463 533 40,000  Level FlightAware Transoceanic
Sun 12:10:00 PM 22.9371 139.9171 342° North 463 533 40,000  Level FlightAware Transoceanic
Sun 12:11:00 PM 23.0661 139.8708 342° North 463 533 40,000  Level FlightAware Transoceanic
Sun 12:12:00 PM 23.1952 139.8246 342° North 463 533 40,000  Level FlightAware Transoceanic
Sun 12:13:00 PM 23.3242 139.7782 342° North 463 533 40,000  Level FlightAware Transoceanic
Sun 12:14:00 PM 23.4532 139.7317 342° North 463 533 40,000  Level FlightAware Transoceanic
Sun 12:15:00 PM 23.5821 139.6851 342° North 463 533 40,000  Level FlightAware Transoceanic
Sun 12:16:00 PM 23.7111 139.6385 342° North 463 533 40,000  Level FlightAware Transoceanic
Sun 12:17:00 PM 23.8401 139.5917 342° North 463 533 40,000  Level FlightAware Transoceanic
Sun 12:18:00 PM 23.9690 139.5449 342° North 463 533 40,000  Level FlightAware Transoceanic
Sun 12:19:00 PM 24.0979 139.4979 342° North 463 533 40,000  Level FlightAware Transoceanic
Sun 12:20:00 PM 24.2268 139.4509 342° North 463 533 40,000  Level FlightAware Transoceanic
Sun 12:21:00 PM 24.3557 139.4038 342° North 463 533 40,000  Level FlightAware Transoceanic
Sun 12:22:00 PM 24.4846 139.3565 342° North 463 533 40,000  Level FlightAware Transoceanic
Sun 12:23:00 PM 24.6135 139.3092 342° North 463 533 40,000  Level FlightAware Transoceanic
Sun 12:24:00 PM 24.7423 139.2618 342° North 463 533 40,000  Level FlightAware Transoceanic
Sun 12:25:00 PM 24.8712 139.2143 341° North 463 533 40,000 Level FlightAware Transoceanic
Sun 12:26:00 PM 24.9888 139.1556 336° Northwest  Level FlightAware Approximate
Sun 12:27:00 PM 25.1064 139.0968 336° Northwest  Level FlightAware Approximate
Sun 12:28:00 PM 25.1051 139.1116 342° North  Level FlightAware Approximate
Sun 12:29:00 PM 25.2276 139.0667 342° North  Level FlightAware Approximate
Sun 12:30:00 PM 25.3502 139.0218 342° North  Level FlightAware Approximate
Sun 12:31:00 PM 25.4727 138.9767 342° North  Level FlightAware Approximate
Sun 12:32:00 PM 25.5952 138.9316 342° North  Level FlightAware Approximate
Sun 12:33:00 PM 25.7177 138.8864 342° North  Level FlightAware Approximate
Sun 12:34:00 PM 25.8402 138.8410 342° North  Level FlightAware Approximate
Sun 12:35:00 PM 25.9626 138.7956 342° North  Level FlightAware Approximate
Sun 12:36:00 PM 26.0851 138.7501 342° North  Level FlightAware Approximate
Sun 12:37:00 PM 26.2075 138.7045 342° North  Level FlightAware Approximate
Sun 12:38:00 PM 26.3299 138.6588 342° North  Level FlightAware Approximate
Sun 12:39:00 PM 26.4523 138.6130 341° North  Level FlightAware Approximate
Sun 12:40:00 PM 26.5747 138.5671 341° North  Level FlightAware Approximate
Sun 12:41:00 PM 26.6971 138.5211 341° North  Level FlightAware Approximate
Sun 12:42:00 PM 26.8194 138.4751 341° North  Level FlightAware Approximate
Sun 12:43:00 PM 26.9418 138.4289 341° North  Level FlightAware Approximate
Sun 12:44:00 PM 27.0641 138.3826 341° North  Level FlightAware Approximate
Sun 12:45:00 PM 27.1864 138.3361 341° North  Level FlightAware Approximate
Sun 12:46:00 PM 27.3087 138.2895 341° North  Level FlightAware Approximate
Sun 12:47:00 PM 27.4309 138.2427 341° North  Level FlightAware Approximate
Sun 12:48:00 PM 27.5531 138.1959 341° North  Level FlightAware Approximate
Sun 12:49:00 PM 27.6753 138.1489 341° North  Level FlightAware Approximate
Sun 12:50:00 PM 27.7975 138.1018 341° North  Level FlightAware Approximate
Sun 12:51:00 PM 27.9197 138.0547 341° North  Level FlightAware Approximate
Sun 12:52:00 PM 28.0418 138.0074 341° North  Level FlightAware Approximate
Sun 12:53:00 PM 28.1640 137.9600 341° North  Level FlightAware Approximate
Sun 12:54:00 PM 28.2861 137.9125 341° North  Level FlightAware Approximate
Sun 12:55:00 PM 28.4082 137.8649 341° North  Level FlightAware Approximate
Sun 12:56:00 PM 28.5303 137.8172 341° North  Level FlightAware Approximate
Sun 12:57:00 PM 28.6524 137.7693 341° North  Level FlightAware Approximate
Sun 12:58:00 PM 28.7744 137.7214 341° North  Level FlightAware Approximate
Sun 12:59:00 PM 28.8965 137.6734 341° North  Level FlightAware Approximate
Sun 01:00:00 PM 29.0185 137.6252 341° North  Level FlightAware Approximate
Sun 01:01:00 PM 29.1405 137.5769 341° North  Level FlightAware Approximate
Sun 01:02:00 PM 29.2625 137.5285 341° North  Level FlightAware Approximate
Sun 01:03:00 PM 29.3845 137.4800 341° North  Level FlightAware Approximate
Sun 01:04:00 PM 29.5064 137.4314 341° North  Level FlightAware Approximate
Sun 01:05:00 PM 29.6284 137.3827 341° North  Level FlightAware Approximate
Sun 01:06:00 PM 29.7503 137.3338 341° North  Level FlightAware Approximate
Sun 01:07:00 PM 29.8722 137.2848 341° North  Level FlightAware Approximate
Sun 01:08:00 PM 29.9941 137.2357 341° North  Level FlightAware Approximate
Sun 01:09:00 PM 30.1150 137.1837 340° North  Level FlightAware Approximate
Sun 01:10:00 PM 30.2360 137.1314 340° North  Level FlightAware Approximate
Sun 01:11:00 PM 30.3568 137.0789 339° North  Level FlightAware Approximate
Sun 01:12:00 PM 30.4777 137.0264 339° North  Level FlightAware Approximate
Sun 01:13:00 PM 30.5996 136.9772 341° North  Level FlightAware Approximate
Sun 01:14:00 PM 30.7218 136.9286 341° North  Level FlightAware Approximate
Sun 01:15:00 PM 30.8439 136.8800 341° North  Level FlightAware Approximate
Sun 01:16:00 PM 30.9661 136.8312 341° North  Level FlightAware Approximate
Sun 01:17:00 PM 31.0882 136.7823 341° North  Level FlightAware Approximate
Sun 01:18:00 PM 31.2102 136.7332 341° North  Level FlightAware Approximate
Sun 01:19:00 PM 31.3323 136.6841 341° North  Level FlightAware Approximate
Sun 01:20:00 PM 31.4540 136.6335 339° North  Level FlightAware Approximate
Sun 01:21:00 PM 31.5747 136.5800 339° North  Level FlightAware Approximate
Sun 01:22:00 PM 31.6955 136.5263 339° North  Level FlightAware Approximate
Sun 01:23:00 PM 31.8162 136.4725 339° North  Level FlightAware Approximate
Sun 01:24:00 PM 31.9378 136.4217 341° North  Level FlightAware Approximate
Sun 01:25:00 PM 32.0601 136.3730 341° North  Level FlightAware Approximate
Sun 01:26:00 PM 32.1824 136.3241 341° North  Level FlightAware Approximate
Sun 01:27:00 PM 32.3047 136.2751 341° North  Level FlightAware Approximate
Sun 01:27:38 PM 32.1630 136.3470 341° North 476 548 40,100  Level FlightAware ADS-B
Sun 01:28:00 PM 32.4269 136.2260 341° North  Level FlightAware Approximate
Sun 01:28:08 PM 32.2270 136.3200 340° North 478 550 40,100  Level FlightAware ADS-B
Sun 01:28:43 PM 32.2930 136.2900 339° North 479 551 40,100  Level FlightAware ADS-B
Sun 01:29:19 PM 32.3570 136.2620 340° North 479 551 40,100 -86 Level FlightAware ADS-B
Sun 01:29:53 PM 32.4430 136.2280 342° North 482 555 40,000 -81 Descending FlightAware ADS-B
Sun 01:30:33 PM 32.5360 136.1880 340° North 482 555 40,000  Level FlightAware ADS-B
Sun 01:31:12 PM 32.6180 136.1440 336° Northwest 482 555 40,000  Level FlightAware ADS-B
Sun 01:31:42 PM 32.6660 136.0910 317° Northwest 474 545 40,000  Level FlightAware ADS-B
Sun 01:32:02 PM 32.6910 136.0480 305° West 468 539 40,000  Level FlightAware ADS-B
Sun 01:32:37 PM 32.7220 135.9690 295° West 466 536 40,000  Level FlightAware ADS-B
Sun 01:33:12 PM 32.7530 135.8850 294° West 466 536 40,000  Level FlightAware ADS-B
Sun 01:33:47 PM 32.7830 135.8040 294° West 466 536 40,000  Level FlightAware ADS-B
Sun 01:34:22 PM 32.8130 135.7220 294° West 465 535 40,000  Level FlightAware ADS-B
Sun 01:35:02 PM 32.8470 135.6300 294° West 467 537 40,000  Level FlightAware ADS-B
Sun 01:35:37 PM 32.8780 135.5450 293° West 470 541 40,000  Level FlightAware ADS-B
Sun 01:36:12 PM 32.9080 135.4620 293° West 479 551 40,000  Level FlightAware ADS-B
Sun 01:36:47 PM 32.9400 135.3760 294° West 489 563 40,000  Level FlightAware ADS-B
Sun 01:37:22 PM 32.9710 135.2900 293° West 487 560 40,000  Level FlightAware ADS-B
Sun 01:38:02 PM 33.0050 135.1960 293° West 485 558 40,000  Level FlightAware ADS-B
Sun 01:38:33 PM 33.0330 135.1190 293° West 486 559 40,000  Level FlightAware ADS-B
Sun 01:39:07 PM 33.0650 135.0320 294° West 487 560 40,000  Level FlightAware ADS-B
Sun 01:39:42 PM 33.0950 134.9470 293° West 487 560 40,000  Level FlightAware ADS-B
Sun 01:40:17 PM 33.1270 134.8590 293° West 487 560 40,000  Level FlightAware ADS-B
Sun 01:40:52 PM 33.1570 134.7740 293° West 486 559 40,000  Level FlightAware ADS-B
Sun 01:41:22 PM 33.1820 134.7040 293° West 488 562 40,000  Level FlightAware ADS-B
Sun 01:41:57 PM 33.2150 134.6120 293° West 489 563 40,000  Level FlightAware ADS-B
Sun 01:42:33 PM 33.2460 134.5250 293° West 490 564 40,000  Level FlightAware ADS-B
Sun 01:43:07 PM 33.2750 134.4440 293° West 490 564 40,000  Level FlightAware ADS-B
Sun 01:43:52 PM 33.3160 134.3270 293° West 491 565 40,000  Level FlightAware ADS-B
Sun 01:44:22 PM 33.3420 134.2530 293° West 491 565 40,000  Level FlightAware ADS-B
Sun 01:44:57 PM 33.3730 134.1640 293° West 491 565 40,000 80 Level FlightAware ADS-B
Sun 01:45:37 PM 33.4080 134.0640 293° West 490 564 40,100 85 Climbing FlightAware ADS-B
Sun 01:46:08 PM 33.4340 133.9900 293° West 488 562 40,100 -86 Level FlightAware ADS-B
Sun 01:46:47 PM 33.4690 133.8900 293° West 486 559 40,000 -81 Descending FlightAware ADS-B
Sun 01:47:22 PM 33.4990 133.8040 293° West 483 556 40,000  Level FlightAware ADS-B
Sun 01:47:52 PM 33.5240 133.7300 292° West 481 554 40,000  Level FlightAware ADS-B
Sun 01:48:27 PM 33.5540 133.6430 292° West 480 552 40,000  Level FlightAware ADS-B
Sun 01:49:04 PM 33.5790 133.5550 289° West 479 551 40,000  Level FlightAware ADS-B
Sun 01:49:37 PM 33.6040 133.4670 289° West 479 551 40,000  Level FlightAware ADS-B
Sun 01:50:17 PM 33.6320 133.3680 289° West 481 554 40,000  Level FlightAware ADS-B
Sun 01:50:52 PM 33.6570 133.2800 289° West 481 554 40,000  Level FlightAware ADS-B
Sun 01:51:22 PM 33.6790 133.2020 289° West 483 556 40,000  Level FlightAware ADS-B
Sun 01:51:56 PM 33.7020 133.1210 289° West 482 555 40,000 85 Level FlightAware ADS-B
Sun 01:52:33 PM 33.7280 133.0280 289° West 481 554 40,100 85 Climbing FlightAware ADS-B
Sun 01:53:07 PM 33.7530 132.9410 289° West 481 554 40,100  Level FlightAware ADS-B
Sun 01:53:42 PM 33.7780 132.8500 288° West 481 554 40,100  Level FlightAware ADS-B
Sun 01:54:17 PM 33.8000 132.7700 288° West 482 555 40,100 -85 Level FlightAware ADS-B
Sun 01:54:53 PM 33.8290 132.6660 289° West 482 555 40,000  Descending FlightAware ADS-B
Sun 01:55:28 PM 33.8540 132.5770 289° West 482 555 40,100 92 Climbing FlightAware ADS-B
Sun 01:55:58 PM 33.8750 132.5000 288° West 480 552 40,100 -86 Level FlightAware ADS-B
Sun 01:56:38 PM 33.9030 132.3990 288° West 479 551 40,000 -80 Descending FlightAware ADS-B
Sun 01:57:13 PM 33.9270 132.3100 288° West 478 550 40,000  Level FlightAware ADS-B
Sun 01:57:53 PM 33.9550 132.2080 288° West 481 554 40,000  Level FlightAware ADS-B
Sun 01:58:23 PM 33.9760 132.1320 288° West 480 552 40,000  Level FlightAware ADS-B
Sun 01:59:00 PM 34.0000 132.0440 288° West 482 555 40,000  Level FlightAware ADS-B
Sun 01:59:36 PM 34.0260 131.9480 288° West 482 555 40,000  Level FlightAware ADS-B
Sun 02:00:11 PM 34.0500 131.8570 288° West 481 554 40,000 86 Level FlightAware ADS-B
Sun 02:00:46 PM 34.0740 131.7680 288° West 480 552 40,100 86 Climbing FlightAware ADS-B
Sun 02:01:21 PM 34.0980 131.6800 288° West 478 550 40,100  Level FlightAware ADS-B
Sun 02:01:56 PM 34.1220 131.5910 288° West 476 548 40,100  Level FlightAware ADS-B
Sun 02:02:26 PM 34.1420 131.5160 288° West 475 547 40,100 -85 Level FlightAware ADS-B
Sun 02:03:07 PM 34.1680 131.4150 287° West 476 548 40,000 -85 Descending FlightAware ADS-B
Sun 02:03:37 PM 34.1880 131.3380 287° West 477 549 40,000  Level FlightAware ADS-B
Sun 02:04:16 PM 34.2150 131.2380 288° West 478 550 40,000  Level FlightAware ADS-B
Sun 02:04:51 PM 34.2390 131.1480 288° West 481 554 40,000  Level FlightAware ADS-B
Sun 02:05:26 PM 34.2620 131.0590 287° West 482 555 40,000 92 Level FlightAware ADS-B
Sun 02:05:56 PM 34.2820 130.9820 287° West 482 555 40,100 92 Climbing FlightAware ADS-B
Sun 02:06:31 PM 34.3050 130.8920 287° West 483 556 40,100  Level FlightAware ADS-B
Sun 02:07:11 PM 34.3320 130.7900 288° West 485 558 40,100 -80 Level FlightAware ADS-B
Sun 02:07:46 PM 34.3550 130.6990 287° West 486 559 40,000  Descending FlightAware ADS-B
Sun 02:08:26 PM 34.3800 130.6040 288° West 485 558 40,100 78 Climbing FlightAware ADS-B
Sun 02:09:03 PM 34.4000 130.5250 287° West 485 558 40,100  Level FlightAware ADS-B
Sun 02:09:34 PM 34.4230 130.4350 287° West 485 558 40,100 -88 Level FlightAware ADS-B
Sun 02:10:11 PM 34.4520 130.3230 287° West 482 555 40,000 -78 Descending FlightAware ADS-B
Sun 02:10:51 PM 34.4780 130.2190 287° West 483 556 40,000  Level FlightAware ADS-B
Sun 02:11:30 PM 34.4910 130.1680 287° West 484 557 40,000  Level FlightAware ADS-B
Sun 02:12:09 PM 34.5220 130.0460 287° West 483 556 40,000  Level FlightAware ADS-B
Sun 02:12:46 PM 34.5470 129.9450 287° West 482 555 40,000  Level FlightAware ADS-B
Sun 02:13:22 PM 34.5700 129.8520 287° West 482 555 40,000  Level FlightAware ADS-B
Sun 02:13:56 PM 34.5980 129.7410 287° West 480 552 40,000  Level FlightAware ADS-B
Sun 02:14:32 PM 34.6200 129.6510 287° West 480 552 40,000  Level FlightAware ADS-B
Sun 02:15:16 PM 34.6490 129.5340 287° West 479 551 40,000  Level FlightAware ADS-B
Sun 02:15:46 PM 34.6680 129.4560 287° West 479 551 40,000 86 Level FlightAware ADS-B
Sun 02:16:26 PM 34.7000 129.3550 291° West 483 556 40,100  Climbing FlightAware ADS-B
Sun 02:17:01 PM 34.7440 129.2790 305° West 487 560 40,000 -92 Descending FlightAware ADS-B
Sun 02:17:31 PM 34.7950 129.2230 318° Northwest 485 558 40,000  Level FlightAware ADS-B
Sun 02:18:06 PM 34.8630 129.1740 329° Northwest 487 560 40,000  Level FlightAware ADS-B
Sun 02:18:46 PM 34.9380 129.1210 330° Northwest 486 559 40,000  Level FlightAware ADS-B
Sun 02:19:21 PM 35.0110 129.0700 330° Northwest 486 559 40,000  Level FlightAware ADS-B
Sun 02:19:51 PM 35.0680 129.0300 330° Northwest 485 558 40,000  Level FlightAware ADS-B
Sun 02:20:26 PM 35.1390 128.9820 331° Northwest 484 557 40,000  Level FlightAware ADS-B
Sun 02:21:01 PM 35.2050 128.9360 330° Northwest 484 557 40,000  Level FlightAware ADS-B
Sun 02:21:40 PM 35.2680 128.8890 329° Northwest 484 557 40,000  Level FlightAware ADS-B
Sun 02:22:17 PM 35.3290 128.8440 329° Northwest 484 557 40,000  Level FlightAware ADS-B
Sun 02:22:54 PM 35.3890 128.8000 329° Northwest 484 557 40,000  Level FlightAware ADS-B
Sun 02:23:30 PM 35.4480 128.7570 329° Northwest 484 557 40,000  Level FlightAware ADS-B
Sun 02:24:06 PM 35.5070 128.7130 329° Northwest 484 557 40,000  Level FlightAware ADS-B
Sun 02:24:42 PM 35.5650 128.6700 329° Northwest 484 557 40,000  Level FlightAware ADS-B
Sun 02:25:18 PM 35.6240 128.6270 329° Northwest 484 557 40,000  Level FlightAware ADS-B
Sun 02:25:54 PM 35.6830 128.5830 329° Northwest 484 557 40,000  Level FlightAware ADS-B
Sun 02:26:30 PM 35.7410 128.5400 329° Northwest 484 557 40,000  Level FlightAware ADS-B
Sun 02:27:07 PM 35.8020 128.4950 329° Northwest 484 557 40,000  Level FlightAware ADS-B
Sun 02:27:43 PM 35.8610 128.4510 329° Northwest 484 557 40,000  Level FlightAware ADS-B
Sun 02:28:19 PM 35.9190 128.4080 329° Northwest 484 557 40,000  Level FlightAware ADS-B
Sun 02:28:55 PM 35.9780 128.3640 329° Northwest 484 557 40,000  Level FlightAware ADS-B
Sun 02:29:44 PM 36.0580 128.3050 329° Northwest 484 557 40,000  Level FlightAware ADS-B
Sun 02:30:18 PM 36.1130 128.2640 329° Northwest 484 557 40,000  Level FlightAware ADS-B
Sun 02:30:55 PM 36.1740 128.2190 329° Northwest 484 557 40,000 -3,422 Level FlightAware ADS-B
Sun 02:33:00 PM 36.3571 127.9747 327° Northwest  Level Estimated
Sun 02:34:00 PM 36.4240 127.8376 301° West  Level FlightAware Approximate
Sun 02:35:00 PM 36.5132 127.7215 326° Northwest  Level Estimated
Sun 02:36:00 PM 36.6179 127.6274 324° Northwest  Level FlightAware Approximate
Sun 02:37:00 PM 36.7051 127.5087 324° Northwest  Level Estimated
Sun 02:37:10 PM 36.9790 127.5830 324° Northwest 415 478 16,500  Level FlightAware ADS-B
Sun 02:37:17 PM 36.9850 127.5670 295° West 415 478 16,100 -4,909 Descending FlightAware ADS-B
Sun 02:37:21 PM 36.9920 127.5430 290° West 416 479 15,600 -3,273 Descending FlightAware ADS-B
Sun 02:37:28 PM 36.9940 127.5360 290° West 413 475 15,500 -1,765 Descending FlightAware ADS-B
Sun 02:37:38 PM 37.0010 127.5080 287° West 410 472 15,100 -1,765 Descending FlightAware ADS-B
Sun 02:37:45 PM 37.0030 127.5030 297° West 402 463 15,000 -3,000 Descending FlightAware ADS-B
Sun 02:37:54 PM 37.0100 127.4740 287° West 400 460 14,300 -3,600 Descending FlightAware ADS-B
Sun 02:38:05 PM 37.0170 127.4480 289° West 399 459 13,800 -2,250 Descending FlightAware ADS-B
Sun 02:38:10 PM 37.0180 127.4450 293° West 397 457 13,700 -2,308 Descending FlightAware ADS-B
Sun 02:38:18 PM 37.0230 127.4270 289° West 397 457 13,300 -686 Descending FlightAware ADS-B
Sun 02:38:45 PM 37.0360 127.3770 288° West 397 457 13,300  Level FlightAware ADS-B
Sun 02:38:57 PM 37.0420 127.3540 288° West 397 457 13,300  Level FlightAware ADS-B
Sun 02:39:09 PM 37.0480 127.3320 289° West 397 457 13,300 -10,615 Level FlightAware ADS-B
Sun 02:39:10 PM 37.0540 127.3090 288° West 379 436 11,000 -14,727 Descending FlightAware ADS-B
Sun 02:39:20 PM 37.0590 127.2890 287° West 376 433 10,600 -2,400 Descending FlightAware ADS-B
Sun 02:39:30 PM 37.0640 127.2700 288° West 374 430 10,200 -1,667 Descending FlightAware ADS-B
Sun 02:39:38 PM 37.0670 127.2610 293° West 371 427 10,100 -1,263 Descending FlightAware ADS-B
Sun 02:39:49 PM 37.0760 127.2270 288° West 371 427 9,800 -692 Descending FlightAware ADS-B
Sun 02:40:04 PM 37.0830 127.2020 289° West 365 420 9,800  Level FlightAware ADS-B
Sun 02:40:13 PM 37.0880 127.1830 288° West 352 405 9,800 -429 Level FlightAware ADS-B
Sun 02:40:18 PM 37.0910 127.1710 287° West 350 403 9,700 -1,200 Descending FlightAware ADS-B
Sun 02:40:28 PM 37.0950 127.1560 288° West 355 409 9,500 -1,565 Descending FlightAware ADS-B
Sun 02:40:41 PM 37.1020 127.1300 289° West 352 405 9,100 -2,786 Descending FlightAware ADS-B
Sun 02:40:56 PM 37.1100 127.0970 287° West 354 407 8,200 -3,600 Descending FlightAware ADS-B
Sun 02:41:01 PM 37.1130 127.0870 291° West 356 410 7,900 -3,273 Descending FlightAware ADS-B
Sun 02:41:07 PM 37.1150 127.0770 284° West 360 414 7,600 -1,304 Descending FlightAware ADS-B
Sun 02:41:47 PM 37.1340 127.0020 288° West 370 426 6,900 -1,935 Descending FlightAware ADS-B
Sun 02:42:09 PM 37.1460 126.9550 288° West 348 400 5,600 -1,600 Descending FlightAware ADS-B
Sun 02:42:47 PM 37.1600 126.8960 287° West 347 399 5,300 -230 Descending FlightAware ADS-B
Sun 02:45:00 PM 37.3483 126.6253 311° West  Level Estimated
Sun 02:45:18 PM 37.2370 126.6060 311° West 4,800  Level FlightAware ADS-B
Sun 02:45:38 PM 37.2500 126.5540 287° West 343 395 4,800  Level FlightAware ADS-B
Sun 02:48:00 PM 37.4691 126.4505 339° North  Level Estimated
Sun 02:49:00 PM 37.4691 126.4505 335° Northwest  Level Estimated
Sun 02:49:36 PM 37.4640 126.2490 335° Northwest 4,800  Level FlightAware ADS-B
Sun 02:50:23 PM 37.5130 126.2070 326° Northwest 251 289 4,800  Level FlightAware ADS-B
Sun 02:50:38 PM 37.5310 126.1950 332° Northwest 235 270 4,800  Level FlightAware ADS-B
Sun 02:50:49 PM 37.5380 126.1950 360° North 228 262 4,800  Level FlightAware ADS-B
Sun 02:51:16 PM 37.5620 126.1940 358° North 228 262 4,800  Level FlightAware ADS-B
Sun 02:53:00 PM 37.4691 126.4505 114° Southeast  Level Estimated
Sun 02:54:00 PM 37.4691 126.4505 335° Northwest  Level Estimated
Sun 02:55:00 PM 37.4691 126.4505 335° Northwest  Level Estimated
Sun 02:56:00 PM 37.4691 126.4505 335° Northwest  Level Estimated
Sun 02:57:00 PM 37.4691 126.4505 335° Northwest  Level Estimated
Sun 02:58:00 PM 37.4691 126.4505 335° Northwest  Level Estimated
Sun 02:59:00 PM 37.4691 126.4505 335° Northwest  Level Estimated
Sun 03:00:00 PM 37.4691 126.4505 335° Northwest  Level Estimated
Sun 03:01:00 PM 37.4691 126.4505 335° Northwest  Level Estimated
Sun 03:02:00 PM 37.4691 126.4505 335° Northwest  Level Estimated
Sun 03:03:00 PM 37.4691 126.4505 335° Northwest  Level Estimated
Sun 03:04:00 PM 37.4691 126.4505 335° Northwest  Level Estimated
Sun 03:05:00 PM 37.4691 126.4505 335° Northwest  Level Estimated
Sun 03:06:00 PM 37.4691 126.4505 335° Northwest  Level Estimated
Sun 03:07:00 PM 37.4691 126.4505 335° Northwest  Level Estimated

Login

Don't have an account? Register now (free) for customized features, flight alerts, and more!